Time;durP1;ratioP1;P1;durP2;ratioP2;P2;SDS_P1;SDS_P2;PMS_P1;PMS_P2;Temp;Humidity;BMP_temperature;BMP_pressure;BME280_temperature;BME280_humidity;BME280_pressure;Samples;Min_cycle;Max_cycle;Signal;HPM_P1;HPM_P2
2021/09/30 00:00:50;;;;;;;1.60;1.10;;;10.20;98.20;;;;;;5030456;28;20469;-77
2021/09/30 00:03:17;;;;;;;1.50;1.10;;;10.20;98.20;;;;;;5035261;28;20946;-76
2021/09/30 00:05:44;;;;;;;1.50;1.10;;;10.10;98.20;;;;;;5033602;28;20474;-76
2021/09/30 00:08:11;;;;;;;1.53;1.20;;;10.10;98.20;;;;;;5036586;28;21009;-77
2021/09/30 00:10:45;;;;;;;1.50;1.20;;;10.10;98.20;;;;;;5036324;28;20937;-76
2021/09/30 00:13:23;;;;;;;1.60;1.20;;;10.10;98.20;;;;;;5043212;28;20455;-77
2021/09/30 00:16:06;;;;;;;1.57;1.20;;;10.10;98.20;;;;;;5030585;28;20509;-78
2021/09/30 00:32:38;;;;;;;1.50;1.20;;;9.90;98.20;;;;;;5029161;28;20441;-79
2021/09/30 00:35:18;;;;;;;1.60;1.30;;;10.00;98.20;;;;;;5030423;28;20986;-77
2021/09/30 00:40:33;;;;;;;1.50;1.20;;;10.00;98.20;;;;;;5037141;28;20462;-78
2021/09/30 00:45:50;;;;;;;1.53;1.20;;;10.00;98.20;;;;;;5036968;28;20737;-78
2021/09/30 00:51:08;;;;;;;1.53;1.20;;;10.00;98.20;;;;;;5020251;28;20458;-78
2021/09/30 00:53:51;;;;;;;1.60;1.20;;;10.00;98.20;;;;;;5033848;28;20514;-78
2021/09/30 01:57:44;;;;;;;1.57;1.20;;;10.00;98.20;;;;;;5035162;28;20514;-78
2021/09/30 02:21:14;;;;;;;1.53;1.20;;;9.90;98.20;;;;;;5037983;28;20477;-76
2021/09/30 02:29:38;;;;;;;1.53;1.20;;;9.90;98.20;;;;;;5024419;28;20481;-77
2021/09/30 02:59:47;;;;;;;1.57;1.20;;;9.70;98.20;;;;;;5028966;28;20502;-76
2021/09/30 03:02:22;;;;;;;1.57;1.20;;;9.70;98.20;;;;;;5040616;28;20499;-76
2021/09/30 03:05:20;;;;;;;1.57;1.20;;;9.60;98.20;;;;;;5032767;28;20467;-76
2021/09/30 03:08:12;;;;;;;1.60;1.30;;;9.60;98.20;;;;;;4969310;28;20490;-78
2021/09/30 03:10:41;;;;;;;1.57;1.20;;;9.60;98.20;;;;;;4949144;28;20457;-78
2021/09/30 03:13:07;;;;;;;1.50;1.20;;;9.60;98.20;;;;;;4956660;28;20474;-78
2021/09/30 03:15:41;;;;;;;1.57;1.23;;;9.60;98.20;;;;;;5010438;28;20468;-77
2021/09/30 03:18:26;;;;;;;1.57;1.20;;;9.50;98.20;;;;;;5017387;28;20887;-79
2021/09/30 03:22:01;;;;;;;1.60;1.30;;;9.50;98.20;;;;;;5021233;28;20483;-78
2021/09/30 03:23:46;;;;;;;1.60;1.30;;;9.50;98.20;;;;;;5021832;28;20595;-77
2021/09/30 03:26:17;;;;;;;1.53;1.20;;;9.50;98.20;;;;;;5013756;28;20508;-78
2021/09/30 03:28:45;;;;;;;1.50;1.23;;;9.50;98.20;;;;;;5012833;28;21017;-79
2021/09/30 03:31:13;;;;;;;1.60;1.23;;;9.40;98.20;;;;;;5029896;28;20455;-78
2021/09/30 03:33:40;;;;;;;1.60;1.30;;;9.40;98.20;;;;;;5029948;28;20471;-78
2021/09/30 03:36:08;;;;;;;1.57;1.20;;;9.40;98.20;;;;;;5023057;28;20463;-76
2021/09/30 03:38:35;;;;;;;1.60;1.20;;;9.40;98.20;;;;;;5029913;28;20849;-80
2021/09/30 03:41:03;;;;;;;1.57;1.20;;;9.40;98.20;;;;;;5031658;28;20498;-78
2021/09/30 03:43:30;;;;;;;1.60;1.30;;;9.40;98.20;;;;;;5031935;28;20742;-76
2021/09/30 03:45:57;;;;;;;1.57;1.20;;;9.40;98.20;;;;;;5038525;28;20464;-79
2021/09/30 03:48:25;;;;;;;1.57;1.20;;;9.30;98.20;;;;;;5035651;28;20556;-77
2021/09/30 03:51:02;;;;;;;1.57;1.20;;;9.30;98.20;;;;;;5033196;28;20471;-78
2021/09/30 03:53:40;;;;;;;1.53;1.20;;;9.30;98.20;;;;;;5030717;28;20885;-79
2021/09/30 03:56:21;;;;;;;1.53;1.20;;;9.30;98.20;;;;;;5036116;28;21032;-77
2021/09/30 04:01:32;;;;;;;1.57;1.20;;;9.20;98.20;;;;;;5029723;28;20829;-77
2021/09/30 04:03:59;;;;;;;1.60;1.30;;;9.20;98.20;;;;;;5036946;28;20959;-78
2021/09/30 04:06:26;;;;;;;1.57;1.20;;;9.20;98.20;;;;;;5037648;28;20586;-79
2021/09/30 04:08:56;;;;;;;1.60;1.20;;;9.10;98.20;;;;;;5035665;28;20608;-81
2021/09/30 04:11:25;;;;;;;1.57;1.27;;;9.10;98.20;;;;;;5041735;28;20565;-78
2021/09/30 04:13:51;;;;;;;1.57;1.20;;;9.10;98.20;;;;;;5031233;28;20498;-76
2021/09/30 04:16:18;;;;;;;1.60;1.20;;;9.10;98.20;;;;;;5033877;28;21019;-77
2021/09/30 04:18:47;;;;;;;1.60;1.30;;;9.10;98.20;;;;;;5039106;28;20463;-79
2021/09/30 04:21:14;;;;;;;1.57;1.20;;;9.00;98.20;;;;;;5031599;28;20467;-78
2021/09/30 04:23:41;;;;;;;1.60;1.20;;;9.00;98.20;;;;;;5030454;28;20475;-79
2021/09/30 04:26:08;;;;;;;1.57;1.20;;;9.00;98.20;;;;;;5032244;28;20776;-78
2021/09/30 04:28:36;;;;;;;1.60;1.27;;;9.00;98.20;;;;;;5037354;28;20597;-77
2021/09/30 04:31:03;;;;;;;1.60;1.20;;;9.00;98.20;;;;;;5025791;28;20559;-78
2021/09/30 04:33:30;;;;;;;1.80;1.60;;;9.00;98.20;;;;;;5027612;28;20471;-77
2021/09/30 04:35:56;;;;;;;1.53;1.20;;;9.00;98.20;;;;;;5030210;28;20462;-76
2021/09/30 04:38:23;;;;;;;1.60;1.20;;;8.90;98.20;;;;;;5029919;28;20827;-78
2021/09/30 04:40:50;;;;;;;1.60;1.30;;;8.90;98.20;;;;;;5024268;28;20474;-78
2021/09/30 04:43:17;;;;;;;1.60;1.30;;;8.90;98.20;;;;;;5035510;28;20470;-78
2021/09/30 04:45:45;;;;;;;1.60;1.30;;;8.90;98.20;;;;;;5040536;28;20469;-77
2021/09/30 04:48:13;;;;;;;1.60;1.23;;;8.90;98.20;;;;;;5031976;28;20479;-78
2021/09/30 04:50:40;;;;;;;1.57;1.20;;;8.90;98.20;;;;;;5028042;28;20483;-76
2021/09/30 04:53:12;;;;;;;1.60;1.30;;;8.90;98.20;;;;;;5039516;28;20473;-79
2021/09/30 04:55:39;;;;;;;1.60;1.30;;;8.90;98.20;;;;;;5027739;28;20515;-78
2021/09/30 04:58:06;;;;;;;1.60;1.40;;;8.90;98.20;;;;;;5035888;28;20576;-77
2021/09/30 05:00:33;;;;;;;1.60;1.30;;;8.90;98.20;;;;;;5030264;28;20463;-78
2021/09/30 05:03:08;;;;;;;1.60;1.20;;;8.90;98.20;;;;;;5031604;28;20463;-75
2021/09/30 05:05:35;;;;;;;1.60;1.30;;;8.80;98.20;;;;;;5030881;28;20973;-76
2021/09/30 05:08:02;;;;;;;1.60;1.30;;;8.80;98.20;;;;;;5039259;28;20544;-77
2021/09/30 05:10:32;;;;;;;1.60;1.30;;;8.80;98.20;;;;;;5034466;28;20518;-78
2021/09/30 05:13:04;;;;;;;1.53;1.20;;;8.80;98.20;;;;;;5032704;28;20710;-77
2021/09/30 05:15:32;;;;;;;1.53;1.30;;;8.80;98.20;;;;;;5035485;28;20478;-82
2021/09/30 05:18:01;;;;;;;1.53;1.20;;;8.80;98.20;;;;;;5034048;28;20549;-78
2021/09/30 05:20:27;;;;;;;1.60;1.30;;;8.80;98.20;;;;;;5033325;28;20486;-80
2021/09/30 05:22:55;;;;;;;1.60;1.30;;;8.70;98.20;;;;;;5035809;28;20482;-78
2021/09/30 05:25:22;;;;;;;1.60;1.20;;;8.70;98.20;;;;;;5029013;28;21017;-76
2021/09/30 05:27:52;;;;;;;1.60;1.30;;;8.70;98.20;;;;;;5043811;28;20478;-79
2021/09/30 05:30:18;;;;;;;1.57;1.27;;;8.60;98.20;;;;;;5051288;28;20486;-78
2021/09/30 05:32:45;;;;;;;1.57;1.30;;;8.60;98.20;;;;;;5032382;28;20547;-78
2021/09/30 05:35:16;;;;;;;1.57;1.30;;;8.60;98.20;;;;;;5031714;28;20466;-81
2021/09/30 05:37:44;;;;;;;1.60;1.30;;;8.60;98.20;;;;;;5036825;28;20571;-79
2021/09/30 05:40:14;;;;;;;1.60;1.27;;;8.60;98.20;;;;;;5033227;28;20455;-80
2021/09/30 05:42:41;;;;;;;1.60;1.30;;;8.60;98.20;;;;;;5035624;28;20462;-76
2021/09/30 05:45:11;;;;;;;1.60;1.20;;;8.60;98.20;;;;;;5033097;28;21017;-78
2021/09/30 05:47:38;;;;;;;1.53;1.27;;;8.60;98.20;;;;;;5032820;28;20970;-77
2021/09/30 05:50:06;;;;;;;1.60;1.30;;;8.60;98.20;;;;;;5031829;28;20503;-79
2021/09/30 05:52:35;;;;;;;1.57;1.30;;;8.60;98.20;;;;;;5031868;28;20478;-77
2021/09/30 05:55:03;;;;;;;1.60;1.40;;;8.60;98.20;;;;;;5031663;28;20562;-78
2021/09/30 05:57:30;;;;;;;1.60;1.40;;;8.60;98.20;;;;;;5043259;28;20482;-77
2021/09/30 06:00:08;;;;;;;1.60;1.50;;;8.60;98.20;;;;;;5032054;28;20557;-75
2021/09/30 06:10:53;;;;;;;1.57;1.30;;;8.70;98.20;;;;;;5030651;28;21040;-77
2021/09/30 06:13:27;;;;;;;1.57;1.20;;;8.70;98.20;;;;;;5034305;28;20555;-77
2021/09/30 06:15:54;;;;;;;1.60;1.20;;;8.80;98.20;;;;;;5032646;28;20463;-76
2021/09/30 06:18:20;;;;;;;1.60;1.30;;;8.90;98.20;;;;;;5033325;28;20494;-76
2021/09/30 06:20:48;;;;;;;1.60;1.30;;;9.00;98.20;;;;;;5035374;28;20570;-77
2021/09/30 06:23:16;;;;;;;1.60;1.30;;;9.10;98.20;;;;;;5031430;28;20471;-75
2021/09/30 06:25:44;;;;;;;1.53;1.30;;;9.20;98.20;;;;;;5031254;28;20460;-76
2021/09/30 06:28:11;;;;;;;1.60;1.27;;;9.40;98.20;;;;;;5030819;28;20641;-77
2021/09/30 06:30:38;;;;;;;1.60;1.27;;;9.50;98.20;;;;;;5021422;28;20567;-78
2021/09/30 06:33:04;;;;;;;1.60;1.30;;;9.70;98.20;;;;;;5027558;28;20463;-78
2021/09/30 06:35:31;;;;;;;1.57;1.20;;;9.80;98.20;;;;;;5028603;28;20471;-77
2021/09/30 06:37:58;;;;;;;1.60;1.27;;;9.90;98.20;;;;;;5022255;28;20498;-77
2021/09/30 06:40:29;;;;;;;1.80;1.53;;;10.10;98.20;;;;;;5030123;28;20470;-77
2021/09/30 06:42:57;;;;;;;1.60;1.30;;;10.20;98.20;;;;;;5047910;28;20474;-79
2021/09/30 06:45:29;;;;;;;1.53;1.20;;;10.30;98.20;;;;;;5017353;28;20463;-79
2021/09/30 06:47:59;;;;;;;1.60;1.20;;;10.50;98.20;;;;;;5036387;28;20545;-79
2021/09/30 06:50:27;;;;;;;1.60;1.30;;;10.70;98.20;;;;;;5026119;28;20835;-76
2021/09/30 06:52:53;;;;;;;1.60;1.20;;;10.80;98.20;;;;;;5016833;28;20471;-80
2021/09/30 06:55:20;;;;;;;1.57;1.20;;;10.90;98.20;;;;;;5034356;28;20488;-80
2021/09/30 06:57:50;;;;;;;1.60;1.20;;;11.10;98.20;;;;;;5043978;28;20479;-81
2021/09/30 07:00:18;;;;;;;1.53;1.10;;;11.20;98.20;;;;;;5029924;28;20466;-78
2021/09/30 07:02:44;;;;;;;1.60;1.20;;;11.30;98.20;;;;;;5012150;28;20472;-78
2021/09/30 07:05:16;;;;;;;1.60;1.30;;;11.40;98.20;;;;;;5010659;28;20838;-77
2021/09/30 07:07:43;;;;;;;1.60;1.20;;;11.50;98.20;;;;;;5023786;28;20521;-78
2021/09/30 07:10:11;;;;;;;1.60;1.10;;;11.60;98.20;;;;;;5028309;28;20487;-79
2021/09/30 07:12:39;;;;;;;1.57;1.20;;;11.80;98.20;;;;;;5021444;28;20467;-79
2021/09/30 07:15:08;;;;;;;1.57;1.20;;;11.90;98.20;;;;;;5032906;28;20465;-80
2021/09/30 07:17:35;;;;;;;1.50;1.10;;;12.00;98.20;;;;;;5035024;28;20486;-77
2021/09/30 07:20:02;;;;;;;1.60;1.20;;;12.10;98.20;;;;;;5034961;28;20898;-78
2021/09/30 07:22:29;;;;;;;1.53;1.13;;;12.20;98.20;;;;;;5033939;28;20484;-77
2021/09/30 07:24:56;;;;;;;1.50;1.10;;;12.20;98.20;;;;;;5033031;28;20467;-77
2021/09/30 07:27:22;;;;;;;1.57;1.10;;;12.30;98.20;;;;;;5032875;28;21090;-77
2021/09/30 07:29:51;;;;;;;1.53;1.10;;;12.40;98.20;;;;;;5036775;28;20480;-76
2021/09/30 07:32:19;;;;;;;1.60;1.20;;;12.50;98.20;;;;;;5032785;28;20475;-76
2021/09/30 07:34:49;;;;;;;1.57;1.10;;;12.60;98.20;;;;;;5027820;28;20467;-77
2021/09/30 07:37:16;;;;;;;1.57;1.10;;;12.70;98.20;;;;;;5038941;28;20522;-77
2021/09/30 07:39:43;;;;;;;1.60;1.10;;;12.80;98.20;;;;;;5035647;28;20459;-78
2021/09/30 07:42:10;;;;;;;1.53;1.10;;;12.90;98.20;;;;;;5030955;28;20493;-78
2021/09/30 07:44:37;;;;;;;1.60;1.10;;;13.00;98.20;;;;;;5041829;28;20920;-78
2021/09/30 07:47:05;;;;;;;1.50;1.00;;;13.10;98.20;;;;;;5031124;28;20511;-75
2021/09/30 07:49:33;;;;;;;1.50;1.03;;;13.20;98.10;;;;;;5032600;28;20697;-77
2021/09/30 07:52:00;;;;;;;1.50;1.00;;;13.30;98.10;;;;;;5026766;28;20946;-75
2021/09/30 07:54:27;;;;;;;1.60;1.20;;;13.40;98.20;;;;;;5047616;22;20500;-78
2021/09/30 07:56:54;;;;;;;1.50;1.10;;;13.50;97.60;;;;;;5053845;28;20806;-78
2021/09/30 07:59:21;;;;;;;1.53;1.00;;;13.70;97.50;;;;;;5049673;28;21047;-77
2021/09/30 08:01:48;;;;;;;1.57;1.10;;;13.80;96.80;;;;;;5026992;28;20853;-76
2021/09/30 08:04:15;;;;;;;1.50;1.10;;;13.90;96.40;;;;;;5024971;28;20549;-78
2021/09/30 08:06:43;;;;;;;1.53;1.00;;;14.00;96.20;;;;;;5034562;28;20487;-76
2021/09/30 08:09:11;;;;;;;1.60;1.10;;;14.00;96.30;;;;;;5039216;28;20466;-77
2021/09/30 08:11:38;;;;;;;1.57;1.00;;;14.10;95.90;;;;;;5032178;28;20490;-77
2021/09/30 08:14:05;;;;;;;1.50;1.00;;;14.10;95.30;;;;;;5030651;28;20478;-79
2021/09/30 08:16:32;;;;;;;1.50;1.00;;;14.20;95.30;;;;;;5034880;28;21048;-76
2021/09/30 08:18:59;;;;;;;1.57;1.10;;;14.20;95.30;;;;;;5027253;28;20510;-80
2021/09/30 08:21:27;;;;;;;1.53;1.10;;;14.30;95.30;;;;;;5021913;28;20470;-76
2021/09/30 08:23:55;;;;;;;1.57;1.00;;;14.40;94.80;;;;;;5029251;28;20463;-75
2021/09/30 08:26:23;;;;;;;1.57;1.00;;;14.40;94.00;;;;;;5026814;28;20652;-78
2021/09/30 08:28:52;;;;;;;1.53;1.00;;;14.50;94.10;;;;;;5033864;28;20497;-76
2021/09/30 08:31:23;;;;;;;1.57;0.90;;;14.60;93.60;;;;;;5028560;28;20493;-76
2021/09/30 08:33:50;;;;;;;1.50;1.00;;;14.70;94.30;;;;;;5024457;28;20480;-76
2021/09/30 08:36:18;;;;;;;1.60;1.30;;;14.80;93.80;;;;;;5026325;28;20483;-76
2021/09/30 08:38:46;;;;;;;1.57;1.00;;;15.00;94.30;;;;;;5029343;28;20537;-78
2021/09/30 08:41:19;;;;;;;1.57;1.00;;;15.10;93.30;;;;;;5036657;28;20474;-78
2021/09/30 08:43:47;;;;;;;1.50;1.00;;;15.10;92.60;;;;;;5032302;28;20454;-76
2021/09/30 08:46:14;;;;;;;1.53;1.00;;;15.10;93.30;;;;;;5030229;28;20833;-76
2021/09/30 08:48:42;;;;;;;1.53;1.00;;;15.10;92.80;;;;;;5034789;28;20471;-78
2021/09/30 08:51:11;;;;;;;1.60;1.00;;;15.10;93.50;;;;;;5046231;28;20495;-76
2021/09/30 08:53:38;;;;;;;1.53;0.97;;;15.10;93.90;;;;;;5030518;28;20463;-77
2021/09/30 08:56:07;;;;;;;1.53;0.90;;;15.10;92.50;;;;;;5036002;28;20476;-78
2021/09/30 08:58:38;;;;;;;1.50;1.00;;;15.10;93.10;;;;;;5035800;28;20914;-79
2021/09/30 09:01:07;;;;;;;1.50;1.00;;;15.20;92.90;;;;;;5041878;28;20685;-77
2021/09/30 09:03:37;;;;;;;1.50;0.90;;;15.30;92.60;;;;;;5035756;28;20570;-79
2021/09/30 09:06:06;;;;;;;1.50;1.00;;;15.40;92.40;;;;;;5036348;28;20536;-78
2021/09/30 09:08:33;;;;;;;1.50;1.00;;;15.60;93.20;;;;;;5042071;28;20466;-78
2021/09/30 09:11:04;;;;;;;1.50;0.90;;;15.70;92.50;;;;;;5023839;28;20487;-77
2021/09/30 09:13:31;;;;;;;1.50;1.00;;;15.90;92.50;;;;;;5031289;28;20463;-76
2021/09/30 09:16:02;;;;;;;1.50;1.00;;;16.00;91.50;;;;;;5049190;22;20491;-76
2021/09/30 09:18:32;;;;;;;1.50;1.00;;;16.10;90.40;;;;;;5077576;22;20977;-80
2021/09/30 09:21:02;;;;;;;1.57;0.90;;;16.20;90.00;;;;;;5066939;28;20469;-76
2021/09/30 09:23:30;;;;;;;1.50;0.90;;;16.30;89.80;;;;;;5063682;28;20461;-77
2021/09/30 09:26:13;;;;;;;1.57;1.00;;;16.40;89.10;;;;;;5065257;28;20664;-77
2021/09/30 09:29:00;;;;;;;1.57;1.00;;;16.40;88.40;;;;;;5041326;28;20822;-77
2021/09/30 09:31:31;;;;;;;1.50;1.00;;;16.50;88.00;;;;;;5039124;28;20489;-77
2021/09/30 09:34:00;;;;;;;1.53;1.00;;;16.50;88.70;;;;;;5044044;28;20477;-77
2021/09/30 09:36:29;;;;;;;1.53;1.00;;;16.50;88.10;;;;;;5049621;28;20818;-77
2021/09/30 09:38:56;;;;;;;1.50;1.00;;;16.60;87.50;;;;;;5053586;28;20501;-78
2021/09/30 09:41:25;;;;;;;1.50;1.00;;;16.60;87.60;;;;;;5046698;28;21041;-77
2021/09/30 09:43:54;;;;;;;1.50;1.00;;;16.60;86.30;;;;;;5048209;28;20554;-78
2021/09/30 09:46:22;;;;;;;1.50;0.90;;;16.70;86.80;;;;;;5046598;28;21004;-78
2021/09/30 09:49:01;;;;;;;1.50;1.00;;;16.70;86.90;;;;;;5052821;28;20528;-77
2021/09/30 09:51:35;;;;;;;1.50;0.90;;;16.80;86.80;;;;;;5052324;28;21090;-78
2021/09/30 09:54:07;;;;;;;1.50;0.90;;;16.80;86.90;;;;;;5048158;28;20456;-79
2021/09/30 09:56:34;;;;;;;1.50;1.00;;;16.90;87.00;;;;;;5051853;28;20485;-77
2021/09/30 09:59:01;;;;;;;1.50;0.90;;;17.00;86.30;;;;;;5044823;28;20468;-78
2021/09/30 10:01:37;;;;;;;1.50;0.93;;;17.00;86.00;;;;;;5051480;28;21023;-78
2021/09/30 10:04:08;;;;;;;1.50;1.00;;;17.10;85.90;;;;;;5044331;28;20472;-79
2021/09/30 10:06:36;;;;;;;1.50;0.90;;;17.20;84.80;;;;;;5050766;28;20490;-79
2021/09/30 10:09:05;;;;;;;1.50;0.90;;;17.20;84.60;;;;;;5052353;28;20462;-78
2021/09/30 10:11:32;;;;;;;1.50;1.00;;;17.30;83.20;;;;;;5048173;28;20580;-79
2021/09/30 10:14:01;;;;;;;1.53;1.00;;;17.30;83.70;;;;;;5048108;28;20903;-79
2021/09/30 10:16:29;;;;;;;1.50;0.90;;;17.40;83.90;;;;;;5047894;28;20482;-79
2021/09/30 10:18:57;;;;;;;1.50;1.00;;;17.40;81.60;;;;;;5045863;28;20469;-78
2021/09/30 10:21:27;;;;;;;1.60;1.10;;;17.40;82.30;;;;;;5046200;28;20745;-79
2021/09/30 10:23:58;;;;;;;1.50;1.00;;;17.60;82.90;;;;;;5048958;28;20541;-78
2021/09/30 10:26:29;;;;;;;1.50;1.00;;;17.70;82.80;;;;;;5043887;28;20488;-78
2021/09/30 10:28:59;;;;;;;1.50;0.90;;;17.70;80.80;;;;;;5049380;28;20482;-77
2021/09/30 10:31:31;;;;;;;1.50;1.00;;;17.70;79.90;;;;;;5047476;28;21028;-78
2021/09/30 10:34:00;;;;;;;1.50;1.00;;;17.60;79.70;;;;;;5047575;28;20466;-80
2021/09/30 10:36:45;;;;;;;1.50;1.00;;;17.50;79.70;;;;;;5044929;28;20856;-77
2021/09/30 10:39:22;;;;;;;1.50;0.90;;;17.50;80.80;;;;;;5051384;28;20462;-78
2021/09/30 10:41:51;;;;;;;1.50;0.90;;;17.60;81.60;;;;;;5037143;28;20450;-75
2021/09/30 10:44:19;;;;;;;1.50;0.90;;;17.60;81.10;;;;;;5047626;28;20459;-75
2021/09/30 10:46:52;;;;;;;1.50;0.90;;;17.60;81.20;;;;;;5041481;28;20481;-77
2021/09/30 10:49:40;;;;;;;1.50;0.90;;;17.70;81.00;;;;;;5048593;28;20840;-77
2021/09/30 10:52:17;;;;;;;1.50;1.00;;;17.80;81.80;;;;;;5048821;28;20965;-77
2021/09/30 10:54:48;;;;;;;1.50;0.93;;;17.90;80.90;;;;;;5051767;28;20498;-77
2021/09/30 10:57:41;;;;;;;1.50;1.00;;;17.90;80.20;;;;;;5047090;28;20478;-76
2021/09/30 11:00:11;;;;;;;1.50;1.00;;;17.90;79.80;;;;;;5042491;28;20497;-78
2021/09/30 11:03:12;;;;;;;1.50;0.90;;;17.90;79.50;;;;;;5044441;28;20466;-79
2021/09/30 11:05:41;;;;;;;1.50;0.90;;;17.80;79.50;;;;;;5036738;28;20510;-78
2021/09/30 11:08:24;;;;;;;1.50;1.00;;;17.70;79.60;;;;;;5050818;28;20481;-78
2021/09/30 11:11:11;;;;;;;1.50;0.90;;;17.80;79.00;;;;;;5044472;28;20501;-79
2021/09/30 11:13:40;;;;;;;1.50;1.00;;;18.00;79.00;;;;;;5043527;28;20458;-79
2021/09/30 11:16:09;;;;;;;1.50;1.00;;;18.20;78.50;;;;;;5035476;28;20640;-78
2021/09/30 11:18:51;;;;;;;1.50;0.90;;;18.20;78.80;;;;;;5042939;28;21005;-79
2021/09/30 11:21:44;;;;;;;1.50;0.90;;;18.10;79.10;;;;;;5036449;28;20506;-78
2021/09/30 11:24:22;;;;;;;1.50;0.90;;;18.10;78.70;;;;;;5039509;28;20470;-77
2021/09/30 11:27:10;;;;;;;1.50;1.00;;;18.10;79.40;;;;;;5040086;28;20486;-78
2021/09/30 11:29:37;;;;;;;1.50;1.00;;;18.10;78.60;;;;;;5039931;28;20479;-78
2021/09/30 11:32:24;;;;;;;1.50;1.00;;;18.10;78.60;;;;;;5044072;28;20497;-75
2021/09/30 11:34:53;;;;;;;1.50;1.00;;;18.10;79.10;;;;;;5051423;28;20462;-77
2021/09/30 11:37:24;;;;;;;1.50;0.97;;;18.10;78.20;;;;;;5048024;28;20486;-77
2021/09/30 11:39:58;;;;;;;1.60;1.10;;;18.10;78.50;;;;;;5050511;28;20462;-77
2021/09/30 11:42:35;;;;;;;1.50;0.90;;;18.10;77.10;;;;;;5046256;28;20701;-77
2021/09/30 11:45:05;;;;;;;1.50;1.00;;;18.10;77.50;;;;;;5045302;28;20468;-76
2021/09/30 11:47:33;;;;;;;1.50;1.00;;;18.10;77.80;;;;;;5042953;28;20967;-77
2021/09/30 11:50:03;;;;;;;1.50;0.97;;;18.10;79.10;;;;;;5041980;28;20504;-77
2021/09/30 11:52:30;;;;;;;1.50;0.90;;;18.20;79.00;;;;;;5040051;28;20520;-77
2021/09/30 11:55:12;;;;;;;1.50;1.00;;;18.20;79.20;;;;;;5050493;28;20469;-75
2021/09/30 11:57:38;;;;;;;1.50;1.00;;;18.20;79.10;;;;;;5045802;28;20509;-75
2021/09/30 12:00:10;;;;;;;1.50;1.00;;;18.30;79.50;;;;;;5046828;28;21170;-78
2021/09/30 12:02:37;;;;;;;1.50;0.90;;;18.30;79.40;;;;;;5047340;28;20612;-78
2021/09/30 12:05:04;;;;;;;1.50;0.90;;;18.30;78.50;;;;;;5043725;28;20465;-76
2021/09/30 12:07:32;;;;;;;1.50;1.00;;;18.30;78.70;;;;;;5045226;28;20478;-77
2021/09/30 12:10:01;;;;;;;1.60;1.10;;;18.40;80.00;;;;;;5048525;28;20463;-77
2021/09/30 12:12:29;;;;;;;1.50;0.90;;;18.40;79.30;;;;;;5058113;28;20807;-76
2021/09/30 12:14:57;;;;;;;1.50;1.00;;;18.50;79.10;;;;;;5044152;28;21027;-80
2021/09/30 12:17:28;;;;;;;1.50;1.00;;;18.50;78.20;;;;;;5047183;28;20493;-77
2021/09/30 12:19:55;;;;;;;1.50;0.97;;;18.60;78.60;;;;;;5047239;28;20847;-76
2021/09/30 12:22:25;;;;;;;1.50;0.90;;;18.70;77.20;;;;;;5040433;28;20459;-78
2021/09/30 12:24:54;;;;;;;1.50;0.90;;;18.80;78.20;;;;;;5039666;28;20854;-79
2021/09/30 12:27:25;;;;;;;1.50;0.97;;;18.90;77.90;;;;;;5039357;28;21009;-77
2021/09/30 12:29:54;;;;;;;1.50;0.90;;;18.90;76.90;;;;;;5048710;28;20459;-78
2021/09/30 12:32:27;;;;;;;1.53;1.00;;;19.00;76.60;;;;;;5042601;28;20478;-78
2021/09/30 12:34:55;;;;;;;1.53;1.00;;;19.00;75.50;;;;;;5045005;28;20469;-77
2021/09/30 12:37:27;;;;;;;1.50;0.90;;;19.00;77.00;;;;;;5042490;28;20573;-77
2021/09/30 12:40:02;;;;;;;1.50;0.90;;;19.00;75.70;;;;;;5044930;28;20572;-77
2021/09/30 12:42:31;;;;;;;1.50;0.90;;;19.10;77.20;;;;;;5045360;28;20469;-78
2021/09/30 12:44:59;;;;;;;1.50;0.90;;;19.10;77.40;;;;;;5046913;28;20471;-77
2021/09/30 12:47:43;;;;;;;1.50;0.90;;;19.10;75.80;;;;;;5045400;28;20488;-76
2021/09/30 12:50:12;;;;;;;1.50;1.00;;;19.20;76.00;;;;;;5043202;28;20490;-77
2021/09/30 12:52:41;;;;;;;1.50;0.90;;;19.30;75.30;;;;;;5046070;28;20492;-78
2021/09/30 12:55:26;;;;;;;1.50;0.90;;;19.30;74.40;;;;;;5047502;28;20553;-78
2021/09/30 12:57:54;;;;;;;1.50;0.90;;;19.30;74.00;;;;;;5047169;28;20488;-78
2021/09/30 13:00:23;;;;;;;1.50;0.90;;;19.20;75.60;;;;;;5046657;28;20458;-78
2021/09/30 13:02:55;;;;;;;1.50;0.90;;;19.20;76.00;;;;;;5042292;28;20858;-77
2021/09/30 13:05:23;;;;;;;1.50;0.90;;;19.20;76.30;;;;;;5040654;28;20471;-77
2021/09/30 13:07:52;;;;;;;1.70;1.47;;;19.20;76.60;;;;;;5042215;28;20521;-78
2021/09/30 13:10:27;;;;;;;1.50;0.90;;;19.20;76.20;;;;;;5045710;28;20474;-78
2021/09/30 13:13:07;;;;;;;1.50;0.90;;;19.10;76.20;;;;;;5042934;28;20473;-78
2021/09/30 13:15:39;;;;;;;1.50;0.93;;;19.10;76.40;;;;;;5039139;28;20472;-77
2021/09/30 13:18:09;;;;;;;1.50;0.90;;;19.00;77.20;;;;;;5042740;28;20825;-76
2021/09/30 13:20:39;;;;;;;1.50;0.90;;;19.00;77.00;;;;;;5041120;28;20458;-77
2021/09/30 13:23:06;;;;;;;1.50;0.90;;;18.90;77.00;;;;;;5045432;28;20945;-80
2021/09/30 13:25:34;;;;;;;1.50;0.90;;;18.80;77.30;;;;;;5051361;28;20465;-76
2021/09/30 13:28:01;;;;;;;1.50;1.00;;;18.80;76.40;;;;;;5043707;28;20494;-76
2021/09/30 13:30:32;;;;;;;1.50;0.90;;;18.70;76.40;;;;;;5047155;28;20562;-79
2021/09/30 13:33:01;;;;;;;1.50;0.90;;;18.60;77.00;;;;;;5039022;28;20479;-77
2021/09/30 13:35:30;;;;;;;1.50;0.90;;;18.50;76.90;;;;;;5042265;28;20571;-79
2021/09/30 13:37:58;;;;;;;1.50;1.00;;;18.40;77.70;;;;;;5041858;28;20994;-78
2021/09/30 13:40:26;;;;;;;1.50;0.90;;;18.40;78.30;;;;;;5045742;28;20466;-77
2021/09/30 13:42:54;;;;;;;1.60;1.00;;;18.40;79.20;;;;;;5050730;28;20477;-79
2021/09/30 13:45:22;;;;;;;1.50;0.90;;;18.40;78.70;;;;;;5046980;28;20549;-77
2021/09/30 13:47:50;;;;;;;1.50;0.90;;;18.30;79.40;;;;;;5042849;28;20478;-79
2021/09/30 13:50:20;;;;;;;1.50;0.90;;;18.20;79.70;;;;;;5047308;28;20477;-76
2021/09/30 13:52:51;;;;;;;1.50;0.90;;;18.20;79.50;;;;;;5047187;28;20508;-79
2021/09/30 13:55:21;;;;;;;1.50;1.00;;;18.20;79.30;;;;;;5040027;28;20585;-79
2021/09/30 13:57:48;;;;;;;1.50;1.00;;;18.10;78.70;;;;;;5046227;28;20569;-79
2021/09/30 14:00:16;;;;;;;1.50;0.90;;;18.00;80.20;;;;;;5047569;28;20473;-77
2021/09/30 14:02:46;;;;;;;1.50;0.97;;;18.00;79.50;;;;;;5047758;28;20467;-78
2021/09/30 14:05:18;;;;;;;1.50;0.90;;;17.90;79.40;;;;;;5044613;28;20785;-77
2021/09/30 14:07:46;;;;;;;1.50;0.93;;;17.90;79.10;;;;;;5050676;28;20478;-75
2021/09/30 14:10:15;;;;;;;1.50;0.90;;;17.80;80.20;;;;;;5061478;28;20987;-76
2021/09/30 14:12:43;;;;;;;1.50;0.90;;;17.80;79.70;;;;;;5054713;28;21074;-75
2021/09/30 14:15:11;;;;;;;2.53;2.33;;;17.70;80.00;;;;;;5056197;28;20462;-77
2021/09/30 14:17:40;;;;;;;1.50;1.00;;;17.70;79.50;;;;;;5055389;28;20573;-77
2021/09/30 14:20:08;;;;;;;1.50;0.90;;;17.70;79.40;;;;;;5058082;28;20524;-76
2021/09/30 14:22:37;;;;;;;1.50;0.90;;;17.60;80.60;;;;;;5047057;28;20513;-77
2021/09/30 14:25:04;;;;;;;1.50;0.90;;;17.60;80.00;;;;;;5059038;28;20458;-76
2021/09/30 14:27:31;;;;;;;1.50;0.90;;;17.60;80.50;;;;;;5047787;28;20874;-77
2021/09/30 14:30:21;;;;;;;1.50;1.00;;;17.50;80.50;;;;;;5042804;28;20476;-77
2021/09/30 14:32:50;;;;;;;1.50;1.00;;;17.50;80.40;;;;;;5047457;28;20510;-76
2021/09/30 14:35:17;;;;;;;1.50;0.90;;;17.50;80.70;;;;;;5055107;28;20458;-75
2021/09/30 14:37:51;;;;;;;1.50;0.90;;;17.50;79.80;;;;;;5047741;28;20812;-78
2021/09/30 14:40:21;;;;;;;1.50;0.90;;;17.40;80.20;;;;;;5051484;28;20462;-76
2021/09/30 14:42:48;;;;;;;1.50;1.00;;;17.40;79.50;;;;;;5045342;28;20456;-76
2021/09/30 14:45:28;;;;;;;1.50;0.97;;;17.40;79.80;;;;;;5048241;28;20592;-77
2021/09/30 14:47:58;;;;;;;1.50;0.90;;;17.40;79.70;;;;;;5051037;28;20478;-78
2021/09/30 14:50:27;;;;;;;1.50;0.90;;;17.40;80.00;;;;;;5049025;28;20478;-77
2021/09/30 14:52:57;;;;;;;1.50;1.00;;;17.30;78.60;;;;;;5055865;28;20482;-75
2021/09/30 14:55:43;;;;;;;1.50;1.00;;;17.40;79.00;;;;;;5047878;28;21220;-76
2021/09/30 14:58:15;;;;;;;1.50;1.00;;;17.40;78.50;;;;;;5046609;28;20486;-77
2021/09/30 15:00:44;;;;;;;1.50;0.90;;;17.40;79.40;;;;;;5052196;22;20513;-77
2021/09/30 15:03:15;;;;;;;1.50;0.90;;;17.40;80.60;;;;;;5017118;28;20483;-76
2021/09/30 15:05:44;;;;;;;1.50;0.90;;;17.50;80.50;;;;;;5023762;28;20470;-78
2021/09/30 15:08:17;;;;;;;1.50;1.00;;;17.40;78.90;;;;;;5028528;28;20564;-76
2021/09/30 15:10:47;;;;;;;1.50;1.00;;;17.40;79.00;;;;;;5034037;28;20478;-76
2021/09/30 15:13:14;;;;;;;1.50;1.00;;;17.30;79.60;;;;;;5030877;28;20486;-78
2021/09/30 15:15:43;;;;;;;1.50;1.00;;;17.30;79.70;;;;;;5046281;28;20458;-76
2021/09/30 15:18:11;;;;;;;1.50;1.00;;;17.20;80.30;;;;;;5038226;28;20577;-77
2021/09/30 15:23:32;;;;;;;1.50;0.90;;;17.10;80.30;;;;;;5049641;28;20495;-77
2021/09/30 15:25:59;;;;;;;1.50;0.90;;;17.10;81.20;;;;;;5037588;28;20871;-76
2021/09/30 15:28:26;;;;;;;1.50;0.90;;;17.00;80.90;;;;;;5037560;28;20474;-76
2021/09/30 15:30:56;;;;;;;1.50;1.00;;;16.90;81.10;;;;;;5039384;28;20451;-76
2021/09/30 15:33:23;;;;;;;1.50;0.90;;;16.90;81.30;;;;;;5038737;28;20559;-76
2021/09/30 15:35:51;;;;;;;1.50;1.00;;;16.90;81.60;;;;;;5048614;28;20469;-76
2021/09/30 15:38:23;;;;;;;1.50;1.00;;;16.80;81.30;;;;;;5038132;28;20494;-77